CCGS Neocaligus — CG7677 — position and weather

sailwx.info

Track history (hours):
 
Tides and Currents Weather Stations Pressure Air Temp Water Temp Dewpoint Dewpoint Depression Visibility Wind Speed Wind Dir Waves Ship Positions

CCGS Neocaligus

Last reported at 2017-May-25 16:57 UTC. Time now 2017-May-27 19:10 UTC.
Position N 49°04' W 123°45'.

Length 23 m; draft 3.5 m.

Type: SAR. MMSI: 316001759.

Date/timePositionNaut miles runAvg speedWind from/ knotsBaromVisibWave heightAir tempDewpointWater temp
2017-May-25 16:57N 49°04' W 123°45'4 9.7
2017-May-25 16:30N 48°60' W 123°43'5 9.4
2017-May-25 16:00N 48°56' W 123°40'4 8.4
2017-May-25 15:30N 48°53' W 123°35'4 7.3
2017-May-25 15:00N 48°49' W 123°35'4 7.3
2017-May-25 14:30N 48°46' W 123°34'8 8.0
2017-May-25 13:30N 48°39' W 123°27'0 0.0
2017-May-25 13:00N 48°39' W 123°27'0 0.0
2017-May-25 12:29N 48°39' W 123°27'0 0.0
2017-May-25 12:00N 48°39' W 123°27'0 0.0
2017-May-25 11:30N 48°39' W 123°27'0 0.0
2017-May-25 10:55N 48°39' W 123°27'0 0.0
2017-May-25 10:30N 48°39' W 123°27'0 0.0
2017-May-25 09:59N 48°39' W 123°27'0 0.0
2017-May-25 09:25N 48°39' W 123°27'0 0.0
2017-May-25 08:50N 48°39' W 123°27'0 0.0
2017-May-25 08:18N 48°39' W 123°27'0 0.0
2017-May-25 07:50N 48°39' W 123°27'0 0.0
2017-May-25 07:04N 48°39' W 123°27'0 0.0
2017-May-25 06:55N 48°39' W 123°27'0 0.0
2017-May-25 06:24N 48°39' W 123°27'0 0.0
2017-May-25 06:00N 48°39' W 123°27'0 0.0
2017-May-25 05:30N 48°39' W 123°27'0 0.0
2017-May-25 05:00N 48°39' W 123°27'0 0.0
2017-May-25 04:30N 48°39' W 123°27'0 0.0
2017-May-25 04:00N 48°39' W 123°27'0 0.0
2017-May-25 03:30N 48°39' W 123°27'0 0.0
2017-May-25 03:00N 48°39' W 123°27'0 0.0
2017-May-25 02:31N 48°39' W 123°27'0 0.0
2017-May-25 02:00N 48°39' W 123°27'0 0.0
2017-May-25 01:30N 48°39' W 123°27'0 0.0
2017-May-25 01:00N 48°39' W 123°27'0 0.0
2017-May-25 00:31N 48°39' W 123°27'0 0.0
2017-May-25 00:00N 48°39' W 123°27'0 0.2
2017-May-24 23:30N 48°39' W 123°27'3 6.3
2017-May-24 23:01N 48°41' W 123°31'4 7.2
2017-May-24 22:30N 48°44' W 123°34'2 3.2
2017-May-24 22:00N 48°43' W 123°32'4 8.7
2017-May-24 21:31N 48°44' W 123°25'1 2.3
2017-May-24 21:00N 48°44' W 123°24'3 5.7
2017-May-24 20:30N 48°46' W 123°21'4 7.1
2017-May-24 20:00N 48°44' W 123°16'4 7.7
2017-May-24 19:30N 48°44' W 123°10'4 8.3
2017-May-24 19:00N 48°46' W 123°05'4 5.1
2017-May-24 18:13N 48°50' W 123°06'4 9.6
2017-May-24 17:50N 48°51' W 123°11'6 6.2
2017-May-24 16:52N 48°56' W 123°17'11 0.6
2017-May-23 22:45N 49°05' W 123°26'2 8.6
2017-May-23 22:29N 49°03' W 123°23'2 2.1
2017-May-23 21:39N 49°05' W 123°24'1 9.2
2017-May-23 21:30N 49°06' W 123°25'5 8.9
2017-May-23 21:00N 49°10' W 123°28'2 4.4
2017-May-23 20:30N 49°12' W 123°26'0 0.9
2017-May-23 20:00N 49°12' W 123°27'5 9.5
2017-May-23 19:29N 49°16' W 123°32'5 9.8
2017-May-23 19:00N 49°19' W 123°38'5 9.2
2017-May-23 18:29N 49°22' W 123°43'12 6.4
2017-May-23 16:40N 49°27' W 123°59'2 8.4
2017-May-23 16:29N 49°28' W 124°01'4 3.9
2017-May-23 15:28N 49°30' W 124°06'3 5.6
2017-May-23 15:00N 49°33' W 124°05'4 8.9
2017-May-23 14:30N 49°37' W 124°04'2 1.5
2017-May-23 13:23N 49°37' W 124°02'0 0.1
2017-May-23 12:53N 49°37' W 124°02'0 0.1
2017-May-23 12:29N 49°37' W 124°02'0 0.1
2017-May-23 11:59N 49°37' W 124°02'0 0.1
2017-May-23 11:29N 49°37' W 124°02'0 0.1
2017-May-23 10:59N 49°37' W 124°02'0 0.0
2017-May-23 10:29N 49°37' W 124°02'0 0.0
2017-May-23 09:41N 49°37' W 124°02'0 0.1
2017-May-23 09:17N 49°37' W 124°02'0 0.1
2017-May-23 08:59N 49°37' W 124°02'0 0.1
2017-May-23 08:29N 49°37' W 124°02'0 0.0
2017-May-23 07:59N 49°37' W 124°02'0 0.1
2017-May-23 07:29N 49°37' W 124°02'0 0.1
2017-May-23 06:59N 49°37' W 124°02'0 0.1
2017-May-23 06:29N 49°37' W 124°02'0 0.1
2017-May-23 05:59N 49°37' W 124°02'0 0.1
2017-May-23 05:29N 49°37' W 124°02'0 0.1
2017-May-23 04:59N 49°37' W 124°02'0 0.0
2017-May-23 04:29N 49°37' W 124°02'0 0.0
2017-May-23 03:53N 49°37' W 124°02'0 0.1
2017-May-23 03:29N 49°37' W 124°02'0 0.0
2017-May-23 00:11N 49°37' W 124°02'0 0.0
2017-May-22 23:41N 49°37' W 124°02'0 0.0
2017-May-22 23:29N 49°37' W 124°02'1 2.9
2017-May-22 23:01N 49°38' W 124°04'2 3.5
2017-May-22 22:30N 49°39' W 124°06'5 8.5
2017-May-22 21:56N 49°40' W 124°13'2 4.7
2017-May-22 21:30N 49°40' W 124°16'2 3.5
2017-May-22 21:00N 49°41' W 124°18'5 9.2
2017-May-22 20:31N 49°44' W 124°24'5 9.3
2017-May-22 20:00N 49°46' W 124°30'5 9.0
2017-May-22 19:30N 49°49' W 124°35'4 8.4
2017-May-22 19:00N 49°47' W 124°41'4 8.3
2017-May-22 18:31N 49°43' W 124°43'0 0.9
2017-May-22 18:00N 49°42' W 124°43'3 6.9
2017-May-22 17:30N 49°40' W 124°40'5 9.1
2017-May-22 16:57N 49°36' W 124°36'9 5.1
2017-May-22 15:16N 49°28' W 124°30'2 8.2
2017-May-22 15:00N 49°28' W 124°34'7 8.8
2017-May-22 14:14N 49°29' W 124°44'1 0.1
2017-May-22 01:41N 49°29' W 124°46'0 0.2
2017-May-22 01:31N 49°29' W 124°46'4 6.7
2017-May-22 00:59N 49°28' W 124°41'44 1.5
2017-May-20 19:30N 49°17' W 123°35'4 8.6
2017-May-20 19:00N 49°18' W 123°29'4 8.4
2017-May-20 18:30N 49°19' W 123°23'2 3.4
2017-May-20 18:00N 49°20' W 123°21'0 0.1
2017-May-20 17:30N 49°20' W 123°21'0 0.8
2017-May-20 17:00N 49°20' W 123°21'1 2.9
2017-May-20 16:30N 49°21' W 123°20'1 2.7
2017-May-20 16:00N 49°20' W 123°21'2 4.2
2017-May-20 15:29N 49°22' W 123°19'3 6.3
2017-May-20 14:58N 49°25' W 123°20'4 8.3
2017-May-20 14:30N 49°25' W 123°26'1 0.1
2017-May-20 00:51N 49°25' W 123°27'4 9.9
2017-May-20 00:28N 49°26' W 123°22'2 0.7
2017-May-19 21:33N 49°27' W 123°19'1 8.8
2017-May-19 21:28N 49°26' W 123°20'1 1.7
2017-May-19 21:00N 49°26' W 123°21'0 0.2
2017-May-19 20:22N 49°26' W 123°21'0 0.6
2017-May-19 19:59N 49°26' W 123°21'0 0.2
2017-May-19 19:02N 49°26' W 123°21'0 3.1
2017-May-19 19:00N 49°26' W 123°22'0 0.1
2017-May-19 18:28N 49°26' W 123°22'1 1.8
2017-May-19 18:00N 49°25' W 123°22'1 2.3
2017-May-19 17:25N 49°25' W 123°20'1 2.3
2017-May-19 17:01N 49°25' W 123°22'0 0.0
2017-May-19 16:29N 49°25' W 123°22'1 1.9
2017-May-19 15:57N 49°25' W 123°20'0 0.9
2017-May-19 15:27N 49°25' W 123°21'1 1.7
2017-May-19 15:00N 49°25' W 123°22'4 7.6
2017-May-19 14:30N 49°25' W 123°28'1 0.1
2017-May-19 01:40N 49°26' W 123°28'2 8.8
2017-May-19 01:23N 49°28' W 123°28'4 3.4
2017-May-19 00:10N 49°32' W 123°26'0 0.2
2017-May-19 00:00N 49°32' W 123°26'1 2.5
2017-May-18 23:25N 49°33' W 123°24'0 0.8
2017-May-18 23:00N 49°33' W 123°24'2 0.3
2017-May-18 15:01N 49°32' W 123°26'0 9.5
2017-May-18 14:59N 49°31' W 123°27'5 9.7
2017-May-18 14:30N 49°27' W 123°28'2 0.2
2017-May-18 02:47N 49°25' W 123°28'3 6.4
2017-May-18 02:23N 49°23' W 123°26'1 1.4
2017-May-18 01:42N 49°23' W 123°25'1 4.0
2017-May-18 01:26N 49°22' W 123°26'2 3.3
2017-May-18 00:58N 49°24' W 123°24'0 0.4
2017-May-18 00:28N 49°23' W 123°24'0 0.2
2017-May-17 23:42N 49°23' W 123°24'1 7.1
2017-May-17 23:30N 49°22' W 123°26'3 6.2
2017-May-17 23:00N 49°20' W 123°24'4 8.1
2017-May-17 22:29N 49°19' W 123°18'4 8.2
2017-May-17 22:00N 49°18' W 123°12'3 5.2
2017-May-17 21:30N 49°16' W 123°08'1 1.6
2017-May-17 21:00N 49°17' W 123°09'0 0.8
2017-May-17 20:27N 49°17' W 123°10'0 0.3
2017-May-17 20:01N 49°17' W 123°09'1 1.4
2017-May-17 19:10N 49°16' W 123°08'0 0.0
2017-May-17 18:43N 49°16' W 123°08'0 0.0
2017-May-17 17:34N 49°16' W 123°08'0 0.1
2017-May-17 17:30N 49°16' W 123°08'3 5.4
2017-May-17 17:00N 49°18' W 123°12'510.1
2017-May-17 16:30N 49°19' W 123°19'5 9.4
2017-May-17 16:00N 49°20' W 123°26'4 2.9
2017-May-17 14:35N 49°24' W 123°25'1 7.7
2017-May-17 14:27N 49°25' W 123°26'1 0.1
2017-May-16 23:33N 49°25' W 123°28'1 9.1
2017-May-16 23:29N 49°25' W 123°27'2 3.4
2017-May-16 22:47N 49°23' W 123°25'0 1.1
2017-May-16 22:25N 49°23' W 123°25'0 0.2
2017-May-16 21:38N 49°23' W 123°24'0 0.9
2017-May-16 21:28N 49°23' W 123°24'1 1.4
2017-May-16 20:54N 49°23' W 123°25'4 8.5
2017-May-16 20:23N 49°20' W 123°30'  
Track history (hours):
 
Tides and Currents Weather Stations Pressure Air Temp Water Temp Dewpoint Dewpoint Depression Visibility Wind Speed Wind Dir Waves Ship Positions

CCGS Neocaligus

Last reported at 2017-May-25 16:57 UTC. Time now 2017-May-27 19:10 UTC.
Position N 49°04' W 123°45'.

Length 23 m; draft 3.5 m.

Type: SAR. MMSI: 316001759.

Date/timePositionNaut miles runAvg speedWind from/ knotsBaromVisibWave heightAir tempDewpointWater temp
2017-May-25 16:57N 49°04' W 123°45'4 9.7
2017-May-25 16:30N 48°60' W 123°43'5 9.4
2017-May-25 16:00N 48°56' W 123°40'4 8.4
2017-May-25 15:30N 48°53' W 123°35'4 7.3
2017-May-25 15:00N 48°49' W 123°35'4 7.3
2017-May-25 14:30N 48°46' W 123°34'8 8.0
2017-May-25 13:30N 48°39' W 123°27'0 0.0
2017-May-25 13:00N 48°39' W 123°27'0 0.0
2017-May-25 12:29N 48°39' W 123°27'0 0.0
2017-May-25 12:00N 48°39' W 123°27'0 0.0
2017-May-25 11:30N 48°39' W 123°27'0 0.0
2017-May-25 10:55N 48°39' W 123°27'0 0.0
2017-May-25 10:30N 48°39' W 123°27'0 0.0
2017-May-25 09:59N 48°39' W 123°27'0 0.0
2017-May-25 09:25N 48°39' W 123°27'0 0.0
2017-May-25 08:50N 48°39' W 123°27'0 0.0
2017-May-25 08:18N 48°39' W 123°27'0 0.0
2017-May-25 07:50N 48°39' W 123°27'0 0.0
2017-May-25 07:04N 48°39' W 123°27'0 0.0
2017-May-25 06:55N 48°39' W 123°27'0 0.0
2017-May-25 06:24N 48°39' W 123°27'0 0.0
2017-May-25 06:00N 48°39' W 123°27'0 0.0
2017-May-25 05:30N 48°39' W 123°27'0 0.0
2017-May-25 05:00N 48°39' W 123°27'0 0.0
2017-May-25 04:30N 48°39' W 123°27'0 0.0
2017-May-25 04:00N 48°39' W 123°27'0 0.0
2017-May-25 03:30N 48°39' W 123°27'0 0.0
2017-May-25 03:00N 48°39' W 123°27'0 0.0
2017-May-25 02:31N 48°39' W 123°27'0 0.0
2017-May-25 02:00N 48°39' W 123°27'0 0.0
2017-May-25 01:30N 48°39' W 123°27'0 0.0
2017-May-25 01:00N 48°39' W 123°27'0 0.0
2017-May-25 00:31N 48°39' W 123°27'0 0.0
2017-May-25 00:00N 48°39' W 123°27'0 0.2
2017-May-24 23:30N 48°39' W 123°27'3 6.3
2017-May-24 23:01N 48°41' W 123°31'4 7.2
2017-May-24 22:30N 48°44' W 123°34'2 3.2
2017-May-24 22:00N 48°43' W 123°32'4 8.7
2017-May-24 21:31N 48°44' W 123°25'1 2.3
2017-May-24 21:00N 48°44' W 123°24'3 5.7
2017-May-24 20:30N 48°46' W 123°21'4 7.1
2017-May-24 20:00N 48°44' W 123°16'4 7.7
2017-May-24 19:30N 48°44' W 123°10'4 8.3
2017-May-24 19:00N 48°46' W 123°05'4 5.1
2017-May-24 18:13N 48°50' W 123°06'4 9.6
2017-May-24 17:50N 48°51' W 123°11'6 6.2
2017-May-24 16:52N 48°56' W 123°17'11 0.6
2017-May-23 22:45N 49°05' W 123°26'2 8.6
2017-May-23 22:29N 49°03' W 123°23'2 2.1
2017-May-23 21:39N 49°05' W 123°24'1 9.2
2017-May-23 21:30N 49°06' W 123°25'5 8.9
2017-May-23 21:00N 49°10' W 123°28'2 4.4
2017-May-23 20:30N 49°12' W 123°26'0 0.9
2017-May-23 20:00N 49°12' W 123°27'5 9.5
2017-May-23 19:29N 49°16' W 123°32'5 9.8
2017-May-23 19:00N 49°19' W 123°38'5 9.2
2017-May-23 18:29N 49°22' W 123°43'12 6.4
2017-May-23 16:40N 49°27' W 123°59'2 8.4
2017-May-23 16:29N 49°28' W 124°01'4 3.9
2017-May-23 15:28N 49°30' W 124°06'3 5.6
2017-May-23 15:00N 49°33' W 124°05'4 8.9
2017-May-23 14:30N 49°37' W 124°04'2 1.5
2017-May-23 13:23N 49°37' W 124°02'0 0.1
2017-May-23 12:53N 49°37' W 124°02'0 0.1
2017-May-23 12:29N 49°37' W 124°02'0 0.1
2017-May-23 11:59N 49°37' W 124°02'0 0.1
2017-May-23 11:29N 49°37' W 124°02'0 0.1
2017-May-23 10:59N 49°37' W 124°02'0 0.0
2017-May-23 10:29N 49°37' W 124°02'0 0.0
2017-May-23 09:41N 49°37' W 124°02'0 0.1
2017-May-23 09:17N 49°37' W 124°02'0 0.1
2017-May-23 08:59N 49°37' W 124°02'0 0.1
2017-May-23 08:29N 49°37' W 124°02'0 0.0
2017-May-23 07:59N 49°37' W 124°02'0 0.1
2017-May-23 07:29N 49°37' W 124°02'0 0.1
2017-May-23 06:59N 49°37' W 124°02'0 0.1
2017-May-23 06:29N 49°37' W 124°02'0 0.1
2017-May-23 05:59N 49°37' W 124°02'0 0.1
2017-May-23 05:29N 49°37' W 124°02'0 0.1
2017-May-23 04:59N 49°37' W 124°02'0 0.0
2017-May-23 04:29N 49°37' W 124°02'0 0.0
2017-May-23 03:53N 49°37' W 124°02'0 0.1
2017-May-23 03:29N 49°37' W 124°02'0 0.0
2017-May-23 00:11N 49°37' W 124°02'0 0.0
2017-May-22 23:41N 49°37' W 124°02'0 0.0
2017-May-22 23:29N 49°37' W 124°02'1 2.9
2017-May-22 23:01N 49°38' W 124°04'2 3.5
2017-May-22 22:30N 49°39' W 124°06'5 8.5
2017-May-22 21:56N 49°40' W 124°13'2 4.7
2017-May-22 21:30N 49°40' W 124°16'2 3.5
2017-May-22 21:00N 49°41' W 124°18'5 9.2
2017-May-22 20:31N 49°44' W 124°24'5 9.3
2017-May-22 20:00N 49°46' W 124°30'5 9.0
2017-May-22 19:30N 49°49' W 124°35'4 8.4
2017-May-22 19:00N 49°47' W 124°41'4 8.3
2017-May-22 18:31N 49°43' W 124°43'0 0.9
2017-May-22 18:00N 49°42' W 124°43'3 6.9
2017-May-22 17:30N 49°40' W 124°40'5 9.1
2017-May-22 16:57N 49°36' W 124°36'9 5.1
2017-May-22 15:16N 49°28' W 124°30'2 8.2
2017-May-22 15:00N 49°28' W 124°34'7 8.8
2017-May-22 14:14N 49°29' W 124°44'1 0.1
2017-May-22 01:41N 49°29' W 124°46'0 0.2
2017-May-22 01:31N 49°29' W 124°46'4 6.7
2017-May-22 00:59N 49°28' W 124°41'44 1.5
2017-May-20 19:30N 49°17' W 123°35'4 8.6
2017-May-20 19:00N 49°18' W 123°29'4 8.4
2017-May-20 18:30N 49°19' W 123°23'2 3.4
2017-May-20 18:00N 49°20' W 123°21'0 0.1
2017-May-20 17:30N 49°20' W 123°21'0 0.8
2017-May-20 17:00N 49°20' W 123°21'1 2.9
2017-May-20 16:30N 49°21' W 123°20'1 2.7
2017-May-20 16:00N 49°20' W 123°21'2 4.2
2017-May-20 15:29N 49°22' W 123°19'3 6.3
2017-May-20 14:58N 49°25' W 123°20'4 8.3
2017-May-20 14:30N 49°25' W 123°26'1 0.1
2017-May-20 00:51N 49°25' W 123°27'4 9.9
2017-May-20 00:28N 49°26' W 123°22'2 0.7
2017-May-19 21:33N 49°27' W 123°19'1 8.8
2017-May-19 21:28N 49°26' W 123°20'1 1.7
2017-May-19 21:00N 49°26' W 123°21'0 0.2
2017-May-19 20:22N 49°26' W 123°21'0 0.6
2017-May-19 19:59N 49°26' W 123°21'0 0.2
2017-May-19 19:02N 49°26' W 123°21'0 3.1
2017-May-19 19:00N 49°26' W 123°22'0 0.1
2017-May-19 18:28N 49°26' W 123°22'1 1.8
2017-May-19 18:00N 49°25' W 123°22'1 2.3
2017-May-19 17:25N 49°25' W 123°20'1 2.3
2017-May-19 17:01N 49°25' W 123°22'0 0.0
2017-May-19 16:29N 49°25' W 123°22'1 1.9
2017-May-19 15:57N 49°25' W 123°20'0 0.9
2017-May-19 15:27N 49°25' W 123°21'1 1.7
2017-May-19 15:00N 49°25' W 123°22'4 7.6
2017-May-19 14:30N 49°25' W 123°28'1 0.1
2017-May-19 01:40N 49°26' W 123°28'2 8.8
2017-May-19 01:23N 49°28' W 123°28'4 3.4
2017-May-19 00:10N 49°32' W 123°26'0 0.2
2017-May-19 00:00N 49°32' W 123°26'1 2.5
2017-May-18 23:25N 49°33' W 123°24'0 0.8
2017-May-18 23:00N 49°33' W 123°24'2 0.3
2017-May-18 15:01N 49°32' W 123°26'0 9.5
2017-May-18 14:59N 49°31' W 123°27'5 9.7
2017-May-18 14:30N 49°27' W 123°28'2 0.2
2017-May-18 02:47N 49°25' W 123°28'3 6.4
2017-May-18 02:23N 49°23' W 123°26'1 1.4
2017-May-18 01:42N 49°23' W 123°25'1 4.0
2017-May-18 01:26N 49°22' W 123°26'2 3.3
2017-May-18 00:58N 49°24' W 123°24'0 0.4
2017-May-18 00:28N 49°23' W 123°24'0 0.2
2017-May-17 23:42N 49°23' W 123°24'1 7.1
2017-May-17 23:30N 49°22' W 123°26'3 6.2
2017-May-17 23:00N 49°20' W 123°24'4 8.1
2017-May-17 22:29N 49°19' W 123°18'4 8.2
2017-May-17 22:00N 49°18' W 123°12'3 5.2
2017-May-17 21:30N 49°16' W 123°08'1 1.6
2017-May-17 21:00N 49°17' W 123°09'0 0.8
2017-May-17 20:27N 49°17' W 123°10'0 0.3
2017-May-17 20:01N 49°17' W 123°09'1 1.4
2017-May-17 19:10N 49°16' W 123°08'0 0.0
2017-May-17 18:43N 49°16' W 123°08'0 0.0
2017-May-17 17:34N 49°16' W 123°08'0 0.1
2017-May-17 17:30N 49°16' W 123°08'3 5.4
2017-May-17 17:00N 49°18' W 123°12'510.1
2017-May-17 16:30N 49°19' W 123°19'5 9.4
2017-May-17 16:00N 49°20' W 123°26'4 2.9
2017-May-17 14:35N 49°24' W 123°25'1 7.7
2017-May-17 14:27N 49°25' W 123°26'1 0.1
2017-May-16 23:33N 49°25' W 123°28'1 9.1
2017-May-16 23:29N 49°25' W 123°27'2 3.4
2017-May-16 22:47N 49°23' W 123°25'0 1.1
2017-May-16 22:25N 49°23' W 123°25'0 0.2
2017-May-16 21:38N 49°23' W 123°24'0 0.9
2017-May-16 21:28N 49°23' W 123°24'1 1.4
2017-May-16 20:54N 49°23' W 123°25'4 8.5
2017-May-16 20:23N 49°20' W 123°30'  

Dump ship's entire track history